sensor_id;sensor_type;location;lat;lon;timestamp;P1;durP1;ratioP1;P2;durP2;ratioP2
15486;SDS011;7845;53.698;10.078;2023-07-24T00:00:08;3.83;;;1.97;;
15486;SDS011;7845;53.698;10.078;2023-07-24T00:02:34;3.80;;;2.10;;
15486;SDS011;7845;53.698;10.078;2023-07-24T00:04:59;3.37;;;1.60;;
15486;SDS011;7845;53.698;10.078;2023-07-24T00:07:25;4.00;;;2.13;;
15486;SDS011;7845;53.698;10.078;2023-07-24T00:09:52;3.63;;;1.97;;
15486;SDS011;7845;53.698;10.078;2023-07-24T00:12:18;3.80;;;2.07;;
15486;SDS011;7845;53.698;10.078;2023-07-24T00:14:43;3.40;;;2.03;;
15486;SDS011;7845;53.698;10.078;2023-07-24T00:17:08;3.40;;;1.90;;
15486;SDS011;7845;53.698;10.078;2023-07-24T00:19:35;3.20;;;1.67;;
15486;SDS011;7845;53.698;10.078;2023-07-24T00:22:00;3.87;;;1.93;;
15486;SDS011;7845;53.698;10.078;2023-07-24T00:24:25;3.60;;;1.90;;
15486;SDS011;7845;53.698;10.078;2023-07-24T00:26:51;3.60;;;2.03;;
15486;SDS011;7845;53.698;10.078;2023-07-24T00:29:16;3.70;;;2.30;;
15486;SDS011;7845;53.698;10.078;2023-07-24T00:31:41;3.90;;;2.00;;
15486;SDS011;7845;53.698;10.078;2023-07-24T00:34:07;4.37;;;2.30;;
15486;SDS011;7845;53.698;10.078;2023-07-24T00:36:32;3.60;;;2.20;;
15486;SDS011;7845;53.698;10.078;2023-07-24T00:38:57;3.47;;;1.90;;
15486;SDS011;7845;53.698;10.078;2023-07-24T00:41:23;3.70;;;1.97;;
15486;SDS011;7845;53.698;10.078;2023-07-24T00:43:48;3.80;;;2.07;;
15486;SDS011;7845;53.698;10.078;2023-07-24T00:46:13;3.93;;;2.07;;
15486;SDS011;7845;53.698;10.078;2023-07-24T00:48:39;3.57;;;1.73;;
15486;SDS011;7845;53.698;10.078;2023-07-24T00:51:05;3.90;;;2.10;;
15486;SDS011;7845;53.698;10.078;2023-07-24T00:53:31;3.20;;;1.60;;
15486;SDS011;7845;53.698;10.078;2023-07-24T00:55:56;3.63;;;2.10;;
15486;SDS011;7845;53.698;10.078;2023-07-24T00:58:22;3.63;;;2.17;;
15486;SDS011;7845;53.698;10.078;2023-07-24T01:00:47;3.60;;;2.00;;
15486;SDS011;7845;53.698;10.078;2023-07-24T01:03:13;4.00;;;2.03;;
15486;SDS011;7845;53.698;10.078;2023-07-24T01:05:39;3.63;;;1.93;;
15486;SDS011;7845;53.698;10.078;2023-07-24T01:08:06;4.20;;;2.37;;
15486;SDS011;7845;53.698;10.078;2023-07-24T01:10:32;3.70;;;2.00;;
15486;SDS011;7845;53.698;10.078;2023-07-24T01:13:15;4.00;;;1.87;;
15486;SDS011;7845;53.698;10.078;2023-07-24T01:15:50;3.20;;;1.30;;
15486;SDS011;7845;53.698;10.078;2023-07-24T01:18:25;3.60;;;1.77;;
15486;SDS011;7845;53.698;10.078;2023-07-24T01:20:55;3.80;;;2.07;;
15486;SDS011;7845;53.698;10.078;2023-07-24T01:26:18;4.20;;;2.33;;
15486;SDS011;7845;53.698;10.078;2023-07-24T01:28:46;3.77;;;2.00;;
15486;SDS011;7845;53.698;10.078;2023-07-24T01:31:13;3.70;;;2.30;;
15486;SDS011;7845;53.698;10.078;2023-07-24T01:33:38;3.53;;;1.90;;
15486;SDS011;7845;53.698;10.078;2023-07-24T01:36:04;3.80;;;1.90;;
15486;SDS011;7845;53.698;10.078;2023-07-24T01:38:31;3.50;;;1.90;;
15486;SDS011;7845;53.698;10.078;2023-07-24T01:40:59;4.03;;;2.33;;
15486;SDS011;7845;53.698;10.078;2023-07-24T01:43:25;3.70;;;2.30;;
15486;SDS011;7845;53.698;10.078;2023-07-24T01:45:52;4.07;;;2.37;;
15486;SDS011;7845;53.698;10.078;2023-07-24T01:48:19;3.60;;;2.00;;
15486;SDS011;7845;53.698;10.078;2023-07-24T01:50:44;4.40;;;2.83;;
15486;SDS011;7845;53.698;10.078;2023-07-24T01:53:09;3.87;;;2.10;;
15486;SDS011;7845;53.698;10.078;2023-07-24T01:55:35;4.00;;;2.33;;
15486;SDS011;7845;53.698;10.078;2023-07-24T01:58:02;3.90;;;2.23;;
15486;SDS011;7845;53.698;10.078;2023-07-24T02:00:27;3.70;;;2.20;;
15486;SDS011;7845;53.698;10.078;2023-07-24T02:02:52;3.60;;;2.07;;
15486;SDS011;7845;53.698;10.078;2023-07-24T02:05:17;4.47;;;2.00;;
15486;SDS011;7845;53.698;10.078;2023-07-24T02:07:43;3.90;;;1.77;;
15486;SDS011;7845;53.698;10.078;2023-07-24T02:10:08;4.27;;;1.87;;
15486;SDS011;7845;53.698;10.078;2023-07-24T02:12:34;3.50;;;2.20;;
15486;SDS011;7845;53.698;10.078;2023-07-24T02:14:59;3.50;;;1.73;;
15486;SDS011;7845;53.698;10.078;2023-07-24T02:17:24;4.47;;;2.33;;
15486;SDS011;7845;53.698;10.078;2023-07-24T02:19:50;4.27;;;2.10;;
15486;SDS011;7845;53.698;10.078;2023-07-24T02:22:15;3.40;;;1.87;;
15486;SDS011;7845;53.698;10.078;2023-07-24T02:24:41;4.43;;;2.33;;
15486;SDS011;7845;53.698;10.078;2023-07-24T02:27:06;3.60;;;2.10;;
15486;SDS011;7845;53.698;10.078;2023-07-24T02:29:32;3.67;;;2.10;;
15486;SDS011;7845;53.698;10.078;2023-07-24T02:31:58;3.87;;;2.57;;
15486;SDS011;7845;53.698;10.078;2023-07-24T02:34:24;3.87;;;1.87;;
15486;SDS011;7845;53.698;10.078;2023-07-24T02:36:52;3.50;;;1.90;;
15486;SDS011;7845;53.698;10.078;2023-07-24T02:39:18;5.07;;;2.90;;
15486;SDS011;7845;53.698;10.078;2023-07-24T02:41:44;4.20;;;2.60;;
15486;SDS011;7845;53.698;10.078;2023-07-24T02:44:12;4.30;;;2.20;;
15486;SDS011;7845;53.698;10.078;2023-07-24T02:46:37;3.83;;;2.50;;
15486;SDS011;7845;53.698;10.078;2023-07-24T02:49:02;4.20;;;2.20;;
15486;SDS011;7845;53.698;10.078;2023-07-24T02:51:28;4.10;;;2.60;;
15486;SDS011;7845;53.698;10.078;2023-07-24T02:53:53;4.07;;;2.60;;
15486;SDS011;7845;53.698;10.078;2023-07-24T02:56:19;4.20;;;2.43;;
15486;SDS011;7845;53.698;10.078;2023-07-24T02:58:45;4.87;;;3.20;;
15486;SDS011;7845;53.698;10.078;2023-07-24T03:01:11;6.63;;;2.83;;
15486;SDS011;7845;53.698;10.078;2023-07-24T03:03:37;4.47;;;2.70;;
15486;SDS011;7845;53.698;10.078;2023-07-24T03:06:02;4.10;;;2.67;;
15486;SDS011;7845;53.698;10.078;2023-07-24T03:08:28;4.30;;;2.73;;
15486;SDS011;7845;53.698;10.078;2023-07-24T03:10:53;5.00;;;3.20;;
15486;SDS011;7845;53.698;10.078;2023-07-24T03:13:18;4.03;;;2.30;;
15486;SDS011;7845;53.698;10.078;2023-07-24T03:15:52;4.70;;;2.90;;
15486;SDS011;7845;53.698;10.078;2023-07-24T03:18:19;4.70;;;2.83;;
15486;SDS011;7845;53.698;10.078;2023-07-24T03:20:44;4.30;;;3.00;;
15486;SDS011;7845;53.698;10.078;2023-07-24T03:23:09;5.90;;;3.50;;
15486;SDS011;7845;53.698;10.078;2023-07-24T03:25:35;5.17;;;3.23;;
15486;SDS011;7845;53.698;10.078;2023-07-24T03:28:01;5.33;;;3.57;;
15486;SDS011;7845;53.698;10.078;2023-07-24T03:30:27;5.03;;;3.57;;
15486;SDS011;7845;53.698;10.078;2023-07-24T03:32:52;4.63;;;3.03;;
15486;SDS011;7845;53.698;10.078;2023-07-24T03:35:18;4.23;;;2.60;;
15486;SDS011;7845;53.698;10.078;2023-07-24T03:37:43;4.63;;;2.80;;
15486;SDS011;7845;53.698;10.078;2023-07-24T03:40:08;4.80;;;3.00;;
15486;SDS011;7845;53.698;10.078;2023-07-24T03:42:34;6.23;;;3.33;;
15486;SDS011;7845;53.698;10.078;2023-07-24T03:44:59;5.10;;;3.50;;
15486;SDS011;7845;53.698;10.078;2023-07-24T03:47:26;4.50;;;3.00;;
15486;SDS011;7845;53.698;10.078;2023-07-24T03:49:51;4.93;;;3.20;;
15486;SDS011;7845;53.698;10.078;2023-07-24T03:52:16;4.90;;;3.00;;
15486;SDS011;7845;53.698;10.078;2023-07-24T03:54:42;4.60;;;3.10;;
15486;SDS011;7845;53.698;10.078;2023-07-24T03:57:07;4.07;;;2.60;;
15486;SDS011;7845;53.698;10.078;2023-07-24T03:59:34;5.13;;;3.20;;
15486;SDS011;7845;53.698;10.078;2023-07-24T04:02:00;4.70;;;2.80;;
15486;SDS011;7845;53.698;10.078;2023-07-24T04:04:26;4.20;;;2.73;;
15486;SDS011;7845;53.698;10.078;2023-07-24T04:06:51;4.70;;;3.10;;
15486;SDS011;7845;53.698;10.078;2023-07-24T04:09:16;4.17;;;2.73;;
15486;SDS011;7845;53.698;10.078;2023-07-24T04:11:42;4.63;;;3.00;;
15486;SDS011;7845;53.698;10.078;2023-07-24T04:14:08;4.40;;;2.80;;
15486;SDS011;7845;53.698;10.078;2023-07-24T04:16:34;4.23;;;2.60;;
15486;SDS011;7845;53.698;10.078;2023-07-24T04:18:59;4.60;;;2.90;;
15486;SDS011;7845;53.698;10.078;2023-07-24T04:21:25;4.20;;;2.53;;
15486;SDS011;7845;53.698;10.078;2023-07-24T04:23:50;4.43;;;2.53;;
15486;SDS011;7845;53.698;10.078;2023-07-24T04:26:16;4.53;;;2.73;;
15486;SDS011;7845;53.698;10.078;2023-07-24T04:28:41;4.50;;;2.60;;
15486;SDS011;7845;53.698;10.078;2023-07-24T04:31:07;4.30;;;2.53;;
15486;SDS011;7845;53.698;10.078;2023-07-24T04:33:32;4.20;;;2.60;;
15486;SDS011;7845;53.698;10.078;2023-07-24T04:35:57;3.60;;;2.23;;
15486;SDS011;7845;53.698;10.078;2023-07-24T04:38:23;4.23;;;1.87;;
15486;SDS011;7845;53.698;10.078;2023-07-24T04:40:48;3.90;;;2.23;;
15486;SDS011;7845;53.698;10.078;2023-07-24T04:43:13;4.43;;;2.80;;
15486;SDS011;7845;53.698;10.078;2023-07-24T04:45:40;4.27;;;2.60;;
15486;SDS011;7845;53.698;10.078;2023-07-24T04:48:05;4.13;;;2.50;;
15486;SDS011;7845;53.698;10.078;2023-07-24T04:50:31;3.77;;;2.30;;
15486;SDS011;7845;53.698;10.078;2023-07-24T04:52:57;4.53;;;2.63;;
15486;SDS011;7845;53.698;10.078;2023-07-24T04:55:23;4.60;;;2.80;;
15486;SDS011;7845;53.698;10.078;2023-07-24T04:57:48;4.50;;;2.80;;
15486;SDS011;7845;53.698;10.078;2023-07-24T05:00:14;3.80;;;2.30;;
15486;SDS011;7845;53.698;10.078;2023-07-24T05:02:39;4.23;;;2.07;;
15486;SDS011;7845;53.698;10.078;2023-07-24T05:05:05;3.80;;;2.17;;
15486;SDS011;7845;53.698;10.078;2023-07-24T05:07:31;5.30;;;2.10;;
15486;SDS011;7845;53.698;10.078;2023-07-24T05:09:56;4.80;;;2.23;;
15486;SDS011;7845;53.698;10.078;2023-07-24T05:12:23;3.57;;;2.17;;
15486;SDS011;7845;53.698;10.078;2023-07-24T05:14:50;3.80;;;2.50;;
15486;SDS011;7845;53.698;10.078;2023-07-24T05:17:17;3.77;;;2.30;;
15486;SDS011;7845;53.698;10.078;2023-07-24T05:19:43;3.80;;;2.20;;
15486;SDS011;7845;53.698;10.078;2023-07-24T05:22:08;3.90;;;2.00;;
15486;SDS011;7845;53.698;10.078;2023-07-24T05:24:35;4.07;;;2.23;;
15486;SDS011;7845;53.698;10.078;2023-07-24T05:27:01;3.70;;;2.10;;
15486;SDS011;7845;53.698;10.078;2023-07-24T05:29:26;4.60;;;2.50;;
15486;SDS011;7845;53.698;10.078;2023-07-24T05:31:51;4.23;;;2.80;;
15486;SDS011;7845;53.698;10.078;2023-07-24T05:34:17;4.40;;;2.70;;
15486;SDS011;7845;53.698;10.078;2023-07-24T05:36:42;4.10;;;2.10;;
15486;SDS011;7845;53.698;10.078;2023-07-24T05:39:07;4.43;;;2.50;;
15486;SDS011;7845;53.698;10.078;2023-07-24T05:41:33;4.40;;;2.57;;
15486;SDS011;7845;53.698;10.078;2023-07-24T05:43:59;3.90;;;2.30;;
15486;SDS011;7845;53.698;10.078;2023-07-24T05:46:24;4.33;;;2.67;;
15486;SDS011;7845;53.698;10.078;2023-07-24T05:48:50;6.50;;;3.50;;
15486;SDS011;7845;53.698;10.078;2023-07-24T05:51:15;4.10;;;2.60;;
15486;SDS011;7845;53.698;10.078;2023-07-24T05:53:41;4.17;;;2.50;;
15486;SDS011;7845;53.698;10.078;2023-07-24T05:56:07;4.53;;;2.90;;
15486;SDS011;7845;53.698;10.078;2023-07-24T05:58:32;4.60;;;2.83;;
15486;SDS011;7845;53.698;10.078;2023-07-24T06:00:58;4.40;;;2.80;;
15486;SDS011;7845;53.698;10.078;2023-07-24T06:03:23;4.40;;;2.67;;
15486;SDS011;7845;53.698;10.078;2023-07-24T06:05:53;5.00;;;3.30;;
15486;SDS011;7845;53.698;10.078;2023-07-24T06:08:19;4.50;;;2.80;;
15486;SDS011;7845;53.698;10.078;2023-07-24T06:10:48;4.80;;;3.20;;
15486;SDS011;7845;53.698;10.078;2023-07-24T06:13:15;4.57;;;2.77;;
15486;SDS011;7845;53.698;10.078;2023-07-24T06:15:41;5.63;;;2.77;;
15486;SDS011;7845;53.698;10.078;2023-07-24T06:18:06;5.97;;;2.93;;
15486;SDS011;7845;53.698;10.078;2023-07-24T06:20:32;4.83;;;2.80;;
15486;SDS011;7845;53.698;10.078;2023-07-24T06:22:57;4.33;;;2.40;;
15486;SDS011;7845;53.698;10.078;2023-07-24T06:25:22;4.80;;;3.00;;
15486;SDS011;7845;53.698;10.078;2023-07-24T06:27:49;4.60;;;2.83;;
15486;SDS011;7845;53.698;10.078;2023-07-24T06:30:14;4.43;;;2.87;;
15486;SDS011;7845;53.698;10.078;2023-07-24T06:32:40;4.13;;;2.60;;
15486;SDS011;7845;53.698;10.078;2023-07-24T06:35:05;5.37;;;3.70;;
15486;SDS011;7845;53.698;10.078;2023-07-24T06:37:31;5.17;;;3.00;;
15486;SDS011;7845;53.698;10.078;2023-07-24T06:39:56;4.40;;;2.60;;
15486;SDS011;7845;53.698;10.078;2023-07-24T06:42:22;5.20;;;3.70;;
15486;SDS011;7845;53.698;10.078;2023-07-24T06:44:49;5.73;;;3.60;;
15486;SDS011;7845;53.698;10.078;2023-07-24T06:47:15;4.90;;;3.13;;
15486;SDS011;7845;53.698;10.078;2023-07-24T06:49:40;5.50;;;3.10;;
15486;SDS011;7845;53.698;10.078;2023-07-24T06:52:05;4.87;;;3.40;;
15486;SDS011;7845;53.698;10.078;2023-07-24T06:54:32;4.60;;;3.00;;
15486;SDS011;7845;53.698;10.078;2023-07-24T06:56:59;5.23;;;3.10;;
15486;SDS011;7845;53.698;10.078;2023-07-24T06:59:24;4.80;;;3.10;;
15486;SDS011;7845;53.698;10.078;2023-07-24T07:01:50;4.53;;;2.93;;
15486;SDS011;7845;53.698;10.078;2023-07-24T07:04:15;5.27;;;3.50;;
15486;SDS011;7845;53.698;10.078;2023-07-24T07:06:42;6.53;;;3.80;;
15486;SDS011;7845;53.698;10.078;2023-07-24T07:09:07;5.00;;;3.33;;
15486;SDS011;7845;53.698;10.078;2023-07-24T07:11:32;6.00;;;4.43;;
15486;SDS011;7845;53.698;10.078;2023-07-24T07:13:58;5.33;;;3.40;;
15486;SDS011;7845;53.698;10.078;2023-07-24T07:16:23;5.33;;;3.73;;
15486;SDS011;7845;53.698;10.078;2023-07-24T07:18:48;5.17;;;3.60;;
15486;SDS011;7845;53.698;10.078;2023-07-24T07:21:14;4.67;;;2.97;;
15486;SDS011;7845;53.698;10.078;2023-07-24T07:23:39;5.73;;;3.57;;
15486;SDS011;7845;53.698;10.078;2023-07-24T07:26:04;4.90;;;3.07;;
15486;SDS011;7845;53.698;10.078;2023-07-24T07:28:33;4.70;;;3.10;;
15486;SDS011;7845;53.698;10.078;2023-07-24T07:30:58;5.03;;;2.63;;
15486;SDS011;7845;53.698;10.078;2023-07-24T07:33:24;5.37;;;3.30;;
15486;SDS011;7845;53.698;10.078;2023-07-24T07:35:50;4.27;;;2.80;;
15486;SDS011;7845;53.698;10.078;2023-07-24T07:38:15;4.30;;;2.77;;
15486;SDS011;7845;53.698;10.078;2023-07-24T07:40:40;4.40;;;2.80;;
15486;SDS011;7845;53.698;10.078;2023-07-24T07:43:06;4.80;;;2.97;;
15486;SDS011;7845;53.698;10.078;2023-07-24T07:45:32;4.87;;;2.60;;
15486;SDS011;7845;53.698;10.078;2023-07-24T07:47:58;4.30;;;2.67;;
15486;SDS011;7845;53.698;10.078;2023-07-24T07:50:23;6.17;;;3.47;;
15486;SDS011;7845;53.698;10.078;2023-07-24T07:52:49;4.20;;;2.50;;
15486;SDS011;7845;53.698;10.078;2023-07-24T07:55:16;4.87;;;3.10;;
15486;SDS011;7845;53.698;10.078;2023-07-24T07:57:41;4.20;;;2.70;;
15486;SDS011;7845;53.698;10.078;2023-07-24T08:00:07;4.10;;;2.53;;
15486;SDS011;7845;53.698;10.078;2023-07-24T08:02:32;5.00;;;2.90;;
15486;SDS011;7845;53.698;10.078;2023-07-24T08:04:59;4.93;;;3.13;;
15486;SDS011;7845;53.698;10.078;2023-07-24T08:07:24;5.00;;;3.47;;
15486;SDS011;7845;53.698;10.078;2023-07-24T08:09:49;5.27;;;3.43;;
15486;SDS011;7845;53.698;10.078;2023-07-24T08:12:15;4.57;;;3.07;;
15486;SDS011;7845;53.698;10.078;2023-07-24T08:14:40;4.77;;;3.03;;
15486;SDS011;7845;53.698;10.078;2023-07-24T08:17:06;4.83;;;2.80;;
15486;SDS011;7845;53.698;10.078;2023-07-24T08:19:31;5.27;;;3.37;;
15486;SDS011;7845;53.698;10.078;2023-07-24T08:21:56;4.70;;;3.03;;
15486;SDS011;7845;53.698;10.078;2023-07-24T08:24:22;6.27;;;4.27;;
15486;SDS011;7845;53.698;10.078;2023-07-24T08:26:48;5.77;;;4.10;;
15486;SDS011;7845;53.698;10.078;2023-07-24T08:29:13;4.93;;;3.13;;
15486;SDS011;7845;53.698;10.078;2023-07-24T08:31:40;4.60;;;3.10;;
15486;SDS011;7845;53.698;10.078;2023-07-24T08:34:05;5.60;;;3.80;;
15486;SDS011;7845;53.698;10.078;2023-07-24T08:36:31;4.63;;;3.27;;
15486;SDS011;7845;53.698;10.078;2023-07-24T08:38:57;4.27;;;2.50;;
15486;SDS011;7845;53.698;10.078;2023-07-24T08:41:24;4.40;;;2.70;;
15486;SDS011;7845;53.698;10.078;2023-07-24T08:43:50;5.13;;;3.40;;
15486;SDS011;7845;53.698;10.078;2023-07-24T08:46:17;4.87;;;2.67;;
15486;SDS011;7845;53.698;10.078;2023-07-24T08:48:43;5.73;;;2.23;;
15486;SDS011;7845;53.698;10.078;2023-07-24T08:51:09;4.40;;;2.80;;
15486;SDS011;7845;53.698;10.078;2023-07-24T08:53:40;3.90;;;2.07;;
15486;SDS011;7845;53.698;10.078;2023-07-24T08:56:07;4.70;;;2.77;;
15486;SDS011;7845;53.698;10.078;2023-07-24T08:58:34;5.20;;;3.50;;
15486;SDS011;7845;53.698;10.078;2023-07-24T09:01:00;5.30;;;3.27;;
15486;SDS011;7845;53.698;10.078;2023-07-24T09:03:27;4.50;;;2.80;;
15486;SDS011;7845;53.698;10.078;2023-07-24T09:05:53;5.30;;;3.40;;
15486;SDS011;7845;53.698;10.078;2023-07-24T09:08:32;4.90;;;2.97;;
15486;SDS011;7845;53.698;10.078;2023-07-24T09:10:59;5.77;;;3.67;;
15486;SDS011;7845;53.698;10.078;2023-07-24T09:13:26;5.50;;;3.87;;
15486;SDS011;7845;53.698;10.078;2023-07-24T09:15:53;4.53;;;2.80;;
15486;SDS011;7845;53.698;10.078;2023-07-24T09:18:20;4.90;;;3.30;;
15486;SDS011;7845;53.698;10.078;2023-07-24T09:20:45;5.77;;;3.50;;
15486;SDS011;7845;53.698;10.078;2023-07-24T09:23:12;4.83;;;2.90;;
15486;SDS011;7845;53.698;10.078;2023-07-24T09:25:39;5.60;;;3.70;;
15486;SDS011;7845;53.698;10.078;2023-07-24T09:28:17;5.40;;;3.77;;
15486;SDS011;7845;53.698;10.078;2023-07-24T09:30:55;4.70;;;3.33;;
15486;SDS011;7845;53.698;10.078;2023-07-24T09:33:35;5.60;;;3.20;;
15486;SDS011;7845;53.698;10.078;2023-07-24T09:36:01;6.03;;;3.83;;
15486;SDS011;7845;53.698;10.078;2023-07-24T09:38:29;4.30;;;2.63;;
15486;SDS011;7845;53.698;10.078;2023-07-24T09:40:56;4.50;;;2.73;;
15486;SDS011;7845;53.698;10.078;2023-07-24T09:43:24;4.60;;;3.03;;
15486;SDS011;7845;53.698;10.078;2023-07-24T09:45:50;4.70;;;3.00;;
15486;SDS011;7845;53.698;10.078;2023-07-24T09:48:17;4.33;;;2.37;;
15486;SDS011;7845;53.698;10.078;2023-07-24T09:50:44;4.67;;;2.97;;
15486;SDS011;7845;53.698;10.078;2023-07-24T09:56:06;4.23;;;2.53;;
15486;SDS011;7845;53.698;10.078;2023-07-24T09:58:34;5.27;;;2.37;;
15486;SDS011;7845;53.698;10.078;2023-07-24T10:01:04;4.40;;;2.20;;
15486;SDS011;7845;53.698;10.078;2023-07-24T10:03:31;5.00;;;3.83;;
15486;SDS011;7845;53.698;10.078;2023-07-24T10:06:11;4.40;;;2.50;;
15486;SDS011;7845;53.698;10.078;2023-07-24T10:08:37;5.27;;;2.30;;
15486;SDS011;7845;53.698;10.078;2023-07-24T10:11:04;5.90;;;2.80;;
15486;SDS011;7845;53.698;10.078;2023-07-24T10:13:29;4.47;;;2.63;;
15486;SDS011;7845;53.698;10.078;2023-07-24T10:15:56;4.30;;;2.70;;
15486;SDS011;7845;53.698;10.078;2023-07-24T10:18:27;4.67;;;2.83;;
15486;SDS011;7845;53.698;10.078;2023-07-24T10:21:53;4.43;;;2.50;;
15486;SDS011;7845;53.698;10.078;2023-07-24T10:23:51;4.43;;;2.70;;
15486;SDS011;7845;53.698;10.078;2023-07-24T10:26:23;5.43;;;2.90;;
15486;SDS011;7845;53.698;10.078;2023-07-24T10:28:50;4.80;;;2.90;;
15486;SDS011;7845;53.698;10.078;2023-07-24T10:31:25;5.37;;;3.33;;
15486;SDS011;7845;53.698;10.078;2023-07-24T10:33:52;5.10;;;3.07;;
15486;SDS011;7845;53.698;10.078;2023-07-24T10:36:18;4.50;;;2.57;;
15486;SDS011;7845;53.698;10.078;2023-07-24T10:38:57;5.13;;;3.30;;
15486;SDS011;7845;53.698;10.078;2023-07-24T10:41:34;4.47;;;2.50;;
15486;SDS011;7845;53.698;10.078;2023-07-24T10:44:01;4.80;;;3.00;;
15486;SDS011;7845;53.698;10.078;2023-07-24T10:46:35;4.57;;;2.73;;
15486;SDS011;7845;53.698;10.078;2023-07-24T10:49:01;5.20;;;3.03;;
15486;SDS011;7845;53.698;10.078;2023-07-24T10:51:28;4.50;;;2.50;;
15486;SDS011;7845;53.698;10.078;2023-07-24T10:53:55;4.60;;;2.47;;
15486;SDS011;7845;53.698;10.078;2023-07-24T10:56:21;4.90;;;2.67;;
15486;SDS011;7845;53.698;10.078;2023-07-24T10:58:46;4.50;;;2.50;;
15486;SDS011;7845;53.698;10.078;2023-07-24T11:01:12;4.70;;;2.77;;
15486;SDS011;7845;53.698;10.078;2023-07-24T11:03:39;4.30;;;2.50;;
15486;SDS011;7845;53.698;10.078;2023-07-24T11:06:19;4.13;;;2.13;;
15486;SDS011;7845;53.698;10.078;2023-07-24T11:08:50;4.50;;;2.47;;
15486;SDS011;7845;53.698;10.078;2023-07-24T11:11:21;4.37;;;2.30;;
15486;SDS011;7845;53.698;10.078;2023-07-24T11:13:47;4.40;;;2.50;;
15486;SDS011;7845;53.698;10.078;2023-07-24T11:16:12;4.40;;;2.90;;
15486;SDS011;7845;53.698;10.078;2023-07-24T11:18:44;4.60;;;2.33;;
15486;SDS011;7845;53.698;10.078;2023-07-24T11:21:12;4.77;;;2.33;;
15486;SDS011;7845;53.698;10.078;2023-07-24T11:23:37;4.87;;;2.53;;
15486;SDS011;7845;53.698;10.078;2023-07-24T11:26:04;4.70;;;2.60;;
15486;SDS011;7845;53.698;10.078;2023-07-24T11:28:38;4.20;;;2.40;;
15486;SDS011;7845;53.698;10.078;2023-07-24T11:31:05;5.10;;;2.70;;
15486;SDS011;7845;53.698;10.078;2023-07-24T11:33:30;4.53;;;3.00;;
15486;SDS011;7845;53.698;10.078;2023-07-24T11:35:56;4.07;;;2.30;;
15486;SDS011;7845;53.698;10.078;2023-07-24T11:38:21;5.40;;;2.60;;
15486;SDS011;7845;53.698;10.078;2023-07-24T11:40:48;4.60;;;2.70;;
15486;SDS011;7845;53.698;10.078;2023-07-24T11:43:18;4.57;;;2.63;;
15486;SDS011;7845;53.698;10.078;2023-07-24T11:45:45;4.30;;;2.40;;
15486;SDS011;7845;53.698;10.078;2023-07-24T11:48:13;4.60;;;2.57;;
15486;SDS011;7845;53.698;10.078;2023-07-24T11:50:43;4.93;;;2.80;;
15486;SDS011;7845;53.698;10.078;2023-07-24T11:53:20;4.40;;;2.43;;
15486;SDS011;7845;53.698;10.078;2023-07-24T11:55:48;4.10;;;2.10;;
15486;SDS011;7845;53.698;10.078;2023-07-24T11:58:15;4.20;;;2.30;;
15486;SDS011;7845;53.698;10.078;2023-07-24T12:00:41;3.97;;;2.07;;
15486;SDS011;7845;53.698;10.078;2023-07-24T12:03:07;4.10;;;2.03;;
15486;SDS011;7845;53.698;10.078;2023-07-24T12:05:39;4.30;;;2.60;;
15486;SDS011;7845;53.698;10.078;2023-07-24T12:08:08;4.20;;;1.60;;
15486;SDS011;7845;53.698;10.078;2023-07-24T12:10:37;3.80;;;1.83;;
15486;SDS011;7845;53.698;10.078;2023-07-24T12:13:04;4.20;;;2.30;;
15486;SDS011;7845;53.698;10.078;2023-07-24T12:15:30;6.60;;;2.60;;
15486;SDS011;7845;53.698;10.078;2023-07-24T12:17:56;4.50;;;2.17;;
15486;SDS011;7845;53.698;10.078;2023-07-24T12:20:22;4.47;;;2.33;;
15486;SDS011;7845;53.698;10.078;2023-07-24T12:22:48;5.13;;;3.17;;
15486;SDS011;7845;53.698;10.078;2023-07-24T12:25:14;4.20;;;2.20;;
15486;SDS011;7845;53.698;10.078;2023-07-24T12:27:44;4.53;;;2.50;;
15486;SDS011;7845;53.698;10.078;2023-07-24T12:30:10;4.73;;;2.60;;
15486;SDS011;7845;53.698;10.078;2023-07-24T12:32:37;5.13;;;2.80;;
15486;SDS011;7845;53.698;10.078;2023-07-24T12:35:02;4.30;;;2.40;;
15486;SDS011;7845;53.698;10.078;2023-07-24T12:37:28;4.00;;;2.30;;
15486;SDS011;7845;53.698;10.078;2023-07-24T12:39:53;4.53;;;2.50;;
15486;SDS011;7845;53.698;10.078;2023-07-24T12:42:19;4.67;;;2.57;;
15486;SDS011;7845;53.698;10.078;2023-07-24T12:44:44;4.90;;;2.80;;
15486;SDS011;7845;53.698;10.078;2023-07-24T12:47:10;4.40;;;2.00;;
15486;SDS011;7845;53.698;10.078;2023-07-24T12:49:36;4.57;;;2.40;;
15486;SDS011;7845;53.698;10.078;2023-07-24T12:52:02;4.20;;;2.30;;
15486;SDS011;7845;53.698;10.078;2023-07-24T12:54:31;4.80;;;2.83;;
15486;SDS011;7845;53.698;10.078;2023-07-24T12:56:56;4.77;;;2.80;;
15486;SDS011;7845;53.698;10.078;2023-07-24T12:59:22;4.00;;;2.10;;
15486;SDS011;7845;53.698;10.078;2023-07-24T13:01:47;5.27;;;2.20;;
15486;SDS011;7845;53.698;10.078;2023-07-24T13:04:13;4.30;;;2.27;;
15486;SDS011;7845;53.698;10.078;2023-07-24T13:06:38;3.80;;;1.70;;
15486;SDS011;7845;53.698;10.078;2023-07-24T13:09:05;4.10;;;2.17;;
15486;SDS011;7845;53.698;10.078;2023-07-24T13:11:30;4.10;;;2.13;;
15486;SDS011;7845;53.698;10.078;2023-07-24T13:13:56;4.13;;;2.20;;
15486;SDS011;7845;53.698;10.078;2023-07-24T13:16:22;4.40;;;2.43;;
15486;SDS011;7845;53.698;10.078;2023-07-24T13:18:48;4.00;;;1.80;;
15486;SDS011;7845;53.698;10.078;2023-07-24T13:21:13;4.50;;;2.17;;
15486;SDS011;7845;53.698;10.078;2023-07-24T13:23:39;4.57;;;2.47;;
15486;SDS011;7845;53.698;10.078;2023-07-24T13:26:05;5.20;;;2.83;;
15486;SDS011;7845;53.698;10.078;2023-07-24T13:28:32;4.50;;;2.70;;
15486;SDS011;7845;53.698;10.078;2023-07-24T13:30:58;4.10;;;2.20;;
15486;SDS011;7845;53.698;10.078;2023-07-24T13:33:23;4.30;;;2.63;;
15486;SDS011;7845;53.698;10.078;2023-07-24T13:35:49;5.33;;;2.30;;
15486;SDS011;7845;53.698;10.078;2023-07-24T13:38:15;4.30;;;2.40;;
15486;SDS011;7845;53.698;10.078;2023-07-24T13:40:41;3.97;;;2.20;;
15486;SDS011;7845;53.698;10.078;2023-07-24T13:43:07;4.17;;;2.37;;
15486;SDS011;7845;53.698;10.078;2023-07-24T13:45:34;4.10;;;2.20;;
15486;SDS011;7845;53.698;10.078;2023-07-24T13:47:59;4.30;;;2.70;;
15486;SDS011;7845;53.698;10.078;2023-07-24T13:50:24;4.17;;;2.40;;
15486;SDS011;7845;53.698;10.078;2023-07-24T13:52:50;4.50;;;2.47;;
15486;SDS011;7845;53.698;10.078;2023-07-24T13:55:18;4.50;;;2.33;;
15486;SDS011;7845;53.698;10.078;2023-07-24T13:57:45;3.90;;;2.07;;
15486;SDS011;7845;53.698;10.078;2023-07-24T14:00:11;3.97;;;1.90;;
15486;SDS011;7845;53.698;10.078;2023-07-24T14:02:38;3.80;;;1.80;;
15486;SDS011;7845;53.698;10.078;2023-07-24T14:05:05;3.70;;;1.80;;
15486;SDS011;7845;53.698;10.078;2023-07-24T14:07:31;3.77;;;2.07;;
15486;SDS011;7845;53.698;10.078;2023-07-24T14:09:56;4.40;;;2.40;;
15486;SDS011;7845;53.698;10.078;2023-07-24T14:12:21;4.13;;;2.23;;
15486;SDS011;7845;53.698;10.078;2023-07-24T14:14:47;4.13;;;2.20;;
15486;SDS011;7845;53.698;10.078;2023-07-24T14:17:13;3.90;;;2.00;;
15486;SDS011;7845;53.698;10.078;2023-07-24T14:19:40;3.77;;;1.90;;
15486;SDS011;7845;53.698;10.078;2023-07-24T14:22:05;4.10;;;2.00;;
15486;SDS011;7845;53.698;10.078;2023-07-24T14:24:35;4.10;;;2.30;;
15486;SDS011;7845;53.698;10.078;2023-07-24T14:27:00;3.70;;;1.80;;
15486;SDS011;7845;53.698;10.078;2023-07-24T14:29:26;3.90;;;2.20;;
15486;SDS011;7845;53.698;10.078;2023-07-24T14:31:51;3.97;;;2.23;;
15486;SDS011;7845;53.698;10.078;2023-07-24T14:34:16;3.60;;;1.97;;
15486;SDS011;7845;53.698;10.078;2023-07-24T14:36:42;3.60;;;1.93;;
15486;SDS011;7845;53.698;10.078;2023-07-24T14:39:07;4.00;;;2.10;;
15486;SDS011;7845;53.698;10.078;2023-07-24T14:41:35;3.93;;;2.30;;
15486;SDS011;7845;53.698;10.078;2023-07-24T14:44:01;3.83;;;2.30;;
15486;SDS011;7845;53.698;10.078;2023-07-24T14:46:26;4.50;;;2.50;;
15486;SDS011;7845;53.698;10.078;2023-07-24T14:48:52;4.13;;;2.07;;